sensor_id;sensor_type;location;lat;lon;timestamp;temperature;humidity
5940;DHT22;2995;-31.998;115.906;2023-11-19T00:02:03;28.30;99.90
5940;DHT22;2995;-31.998;115.906;2023-11-19T00:04:38;28.50;99.90
5940;DHT22;2995;-31.998;115.906;2023-11-19T00:07:10;28.50;99.90
5940;DHT22;2995;-31.998;115.906;2023-11-19T00:09:44;28.70;99.90
5940;DHT22;2995;-31.998;115.906;2023-11-19T00:12:15;28.70;99.90
5940;DHT22;2995;-31.998;115.906;2023-11-19T00:14:46;28.60;99.90
5940;DHT22;2995;-31.998;115.906;2023-11-19T00:17:18;29.00;99.90
5940;DHT22;2995;-31.998;115.906;2023-11-19T00:19:49;29.20;99.90
5940;DHT22;2995;-31.998;115.906;2023-11-19T00:22:20;29.40;99.90
5940;DHT22;2995;-31.998;115.906;2023-11-19T00:24:54;29.40;99.90
5940;DHT22;2995;-31.998;115.906;2023-11-19T00:27:25;29.40;99.90
5940;DHT22;2995;-31.998;115.906;2023-11-19T00:29:56;29.60;99.90
5940;DHT22;2995;-31.998;115.906;2023-11-19T00:32:27;29.30;99.90
5940;DHT22;2995;-31.998;115.906;2023-11-19T00:34:58;29.40;99.90
5940;DHT22;2995;-31.998;115.906;2023-11-19T00:37:30;29.60;99.90
5940;DHT22;2995;-31.998;115.906;2023-11-19T00:40:04;29.70;99.90
5940;DHT22;2995;-31.998;115.906;2023-11-19T00:42:38;29.80;99.90
5940;DHT22;2995;-31.998;115.906;2023-11-19T00:45:09;29.80;99.90
5940;DHT22;2995;-31.998;115.906;2023-11-19T00:47:41;29.70;99.90
5940;DHT22;2995;-31.998;115.906;2023-11-19T00:50:13;29.80;99.90
5940;DHT22;2995;-31.998;115.906;2023-11-19T00:52:44;30.00;99.90
5940;DHT22;2995;-31.998;115.906;2023-11-19T00:55:17;30.20;99.90
5940;DHT22;2995;-31.998;115.906;2023-11-19T00:57:48;30.70;99.90
5940;DHT22;2995;-31.998;115.906;2023-11-19T01:00:20;30.80;99.90
5940;DHT22;2995;-31.998;115.906;2023-11-19T01:02:55;30.70;99.90
5940;DHT22;2995;-31.998;115.906;2023-11-19T01:05:26;30.50;99.80
5940;DHT22;2995;-31.998;115.906;2023-11-19T01:07:57;30.50;99.90
5940;DHT22;2995;-31.998;115.906;2023-11-19T01:10:30;30.70;99.90
5940;DHT22;2995;-31.998;115.906;2023-11-19T01:13:01;30.60;99.90
5940;DHT22;2995;-31.998;115.906;2023-11-19T01:15:33;30.90;99.90
5940;DHT22;2995;-31.998;115.906;2023-11-19T01:18:05;31.00;99.90
5940;DHT22;2995;-31.998;115.906;2023-11-19T01:20:37;31.20;99.90
5940;DHT22;2995;-31.998;115.906;2023-11-19T01:23:09;31.30;99.90
5940;DHT22;2995;-31.998;115.906;2023-11-19T01:25:43;31.20;99.50
5940;DHT22;2995;-31.998;115.906;2023-11-19T01:28:16;31.20;99.70
5940;DHT22;2995;-31.998;115.906;2023-11-19T01:30:47;31.30;98.60
5940;DHT22;2995;-31.998;115.906;2023-11-19T01:33:21;31.10;98.60
5940;DHT22;2995;-31.998;115.906;2023-11-19T01:35:53;31.20;99.00
5940;DHT22;2995;-31.998;115.906;2023-11-19T01:38:26;31.30;99.10
5940;DHT22;2995;-31.998;115.906;2023-11-19T01:41:00;31.50;98.90
5940;DHT22;2995;-31.998;115.906;2023-11-19T01:43:36;31.30;98.30
5940;DHT22;2995;-31.998;115.906;2023-11-19T01:46:09;31.60;98.70
5940;DHT22;2995;-31.998;115.906;2023-11-19T01:48:44;31.50;97.50
5940;DHT22;2995;-31.998;115.906;2023-11-19T01:51:17;31.50;97.20
5940;DHT22;2995;-31.998;115.906;2023-11-19T01:53:49;31.50;97.00
5940;DHT22;2995;-31.998;115.906;2023-11-19T01:56:23;31.60;96.10
5940;DHT22;2995;-31.998;115.906;2023-11-19T01:58:55;31.70;96.20
5940;DHT22;2995;-31.998;115.906;2023-11-19T02:01:27;32.00;96.10
5940;DHT22;2995;-31.998;115.906;2023-11-19T02:03:58;32.00;96.40
5940;DHT22;2995;-31.998;115.906;2023-11-19T02:06:30;32.20;96.40
5940;DHT22;2995;-31.998;115.906;2023-11-19T02:09:02;32.40;95.70
5940;DHT22;2995;-31.998;115.906;2023-11-19T02:11:39;32.40;96.20
5940;DHT22;2995;-31.998;115.906;2023-11-19T02:14:11;32.60;95.10
5940;DHT22;2995;-31.998;115.906;2023-11-19T02:16:42;32.70;95.20
5940;DHT22;2995;-31.998;115.906;2023-11-19T02:19:14;32.80;94.70
5940;DHT22;2995;-31.998;115.906;2023-11-19T02:21:45;32.80;94.90
5940;DHT22;2995;-31.998;115.906;2023-11-19T02:24:18;32.90;94.60
5940;DHT22;2995;-31.998;115.906;2023-11-19T02:27:01;32.90;94.30
5940;DHT22;2995;-31.998;115.906;2023-11-19T02:29:35;33.00;94.60
5940;DHT22;2995;-31.998;115.906;2023-11-19T02:32:07;33.00;93.60
5940;DHT22;2995;-31.998;115.906;2023-11-19T02:34:38;32.90;93.40
5940;DHT22;2995;-31.998;115.906;2023-11-19T02:37:10;33.00;93.70
5940;DHT22;2995;-31.998;115.906;2023-11-19T02:39:43;33.00;92.50
5940;DHT22;2995;-31.998;115.906;2023-11-19T02:42:14;32.90;92.50
5940;DHT22;2995;-31.998;115.906;2023-11-19T02:44:48;33.20;92.30
5940;DHT22;2995;-31.998;115.906;2023-11-19T02:47:19;33.20;92.10
5940;DHT22;2995;-31.998;115.906;2023-11-19T02:49:52;33.40;91.70
5940;DHT22;2995;-31.998;115.906;2023-11-19T02:52:23;33.40;91.30
5940;DHT22;2995;-31.998;115.906;2023-11-19T02:54:54;33.80;91.50
5940;DHT22;2995;-31.998;115.906;2023-11-19T02:57:25;33.60;90.20
5940;DHT22;2995;-31.998;115.906;2023-11-19T03:00:04;33.50;90.90
5940;DHT22;2995;-31.998;115.906;2023-11-19T03:02:41;33.80;90.50
5940;DHT22;2995;-31.998;115.906;2023-11-19T03:05:14;34.20;90.20
5940;DHT22;2995;-31.998;115.906;2023-11-19T03:07:47;34.30;88.00
5940;DHT22;2995;-31.998;115.906;2023-11-19T03:10:19;34.20;86.10
5940;DHT22;2995;-31.998;115.906;2023-11-19T03:12:50;34.30;88.60
5940;DHT22;2995;-31.998;115.906;2023-11-19T03:15:25;34.10;90.40
5940;DHT22;2995;-31.998;115.906;2023-11-19T03:17:56;34.40;90.90
5940;DHT22;2995;-31.998;115.906;2023-11-19T03:20:27;34.60;85.70
5940;DHT22;2995;-31.998;115.906;2023-11-19T03:22:58;34.40;89.60
5940;DHT22;2995;-31.998;115.906;2023-11-19T03:25:30;34.70;90.90
5940;DHT22;2995;-31.998;115.906;2023-11-19T03:28:05;34.90;90.80
5940;DHT22;2995;-31.998;115.906;2023-11-19T03:30:38;35.10;91.80
5940;DHT22;2995;-31.998;115.906;2023-11-19T03:33:10;34.90;92.10
5940;DHT22;2995;-31.998;115.906;2023-11-19T03:35:41;34.70;92.10
5940;DHT22;2995;-31.998;115.906;2023-11-19T03:38:12;34.70;92.50
5940;DHT22;2995;-31.998;115.906;2023-11-19T03:40:44;34.70;92.60
5940;DHT22;2995;-31.998;115.906;2023-11-19T03:43:16;35.00;92.00
5940;DHT22;2995;-31.998;115.906;2023-11-19T03:45:49;35.10;92.80
5940;DHT22;2995;-31.998;115.906;2023-11-19T03:48:20;35.10;93.70
5940;DHT22;2995;-31.998;115.906;2023-11-19T03:50:51;35.00;93.60
5940;DHT22;2995;-31.998;115.906;2023-11-19T03:53:22;35.10;93.50
5940;DHT22;2995;-31.998;115.906;2023-11-19T03:55:54;35.00;92.30
5940;DHT22;2995;-31.998;115.906;2023-11-19T03:58:25;35.10;91.00
5940;DHT22;2995;-31.998;115.906;2023-11-19T04:00:58;35.20;93.00
5940;DHT22;2995;-31.998;115.906;2023-11-19T04:03:30;35.10;93.80
5940;DHT22;2995;-31.998;115.906;2023-11-19T04:06:01;34.90;93.00
5940;DHT22;2995;-31.998;115.906;2023-11-19T04:08:33;34.90;92.70
5940;DHT22;2995;-31.998;115.906;2023-11-19T04:11:05;35.00;90.90
5940;DHT22;2995;-31.998;115.906;2023-11-19T04:13:36;35.20;91.90
5940;DHT22;2995;-31.998;115.906;2023-11-19T04:16:10;35.30;91.90
5940;DHT22;2995;-31.998;115.906;2023-11-19T04:18:42;35.20;90.80
5940;DHT22;2995;-31.998;115.906;2023-11-19T04:21:14;35.10;90.20
5940;DHT22;2995;-31.998;115.906;2023-11-19T04:23:45;35.20;90.70
5940;DHT22;2995;-31.998;115.906;2023-11-19T04:26:16;35.20;90.60
5940;DHT22;2995;-31.998;115.906;2023-11-19T04:28:48;35.20;90.10
5940;DHT22;2995;-31.998;115.906;2023-11-19T04:31:21;35.00;89.30
5940;DHT22;2995;-31.998;115.906;2023-11-19T04:33:52;35.10;89.80
5940;DHT22;2995;-31.998;115.906;2023-11-19T04:36:24;35.00;90.30
5940;DHT22;2995;-31.998;115.906;2023-11-19T04:38:55;35.00;89.70
5940;DHT22;2995;-31.998;115.906;2023-11-19T04:41:27;35.10;88.60
5940;DHT22;2995;-31.998;115.906;2023-11-19T04:43:59;35.00;87.70
5940;DHT22;2995;-31.998;115.906;2023-11-19T04:46:32;35.00;87.90
5940;DHT22;2995;-31.998;115.906;2023-11-19T04:49:04;34.90;87.60
5940;DHT22;2995;-31.998;115.906;2023-11-19T04:51:40;34.90;88.70
5940;DHT22;2995;-31.998;115.906;2023-11-19T04:54:12;35.00;88.80
5940;DHT22;2995;-31.998;115.906;2023-11-19T04:56:47;35.10;88.50
5940;DHT22;2995;-31.998;115.906;2023-11-19T04:59:18;34.90;88.90
5940;DHT22;2995;-31.998;115.906;2023-11-19T05:01:51;34.90;87.80
5940;DHT22;2995;-31.998;115.906;2023-11-19T05:04:22;35.10;87.00
5940;DHT22;2995;-31.998;115.906;2023-11-19T05:06:54;34.80;88.10
5940;DHT22;2995;-31.998;115.906;2023-11-19T05:09:25;34.80;87.80
5940;DHT22;2995;-31.998;115.906;2023-11-19T05:11:56;34.90;87.00
5940;DHT22;2995;-31.998;115.906;2023-11-19T05:14:27;34.80;87.10
5940;DHT22;2995;-31.998;115.906;2023-11-19T05:17:01;34.90;85.60
5940;DHT22;2995;-31.998;115.906;2023-11-19T05:19:32;34.80;86.10
5940;DHT22;2995;-31.998;115.906;2023-11-19T05:22:03;34.80;86.00
5940;DHT22;2995;-31.998;115.906;2023-11-19T05:24:35;34.80;86.00
5940;DHT22;2995;-31.998;115.906;2023-11-19T05:27:07;34.90;84.70
5940;DHT22;2995;-31.998;115.906;2023-11-19T05:29:39;34.80;84.30
5940;DHT22;2995;-31.998;115.906;2023-11-19T05:32:13;34.70;85.50
5940;DHT22;2995;-31.998;115.906;2023-11-19T05:34:45;34.80;86.00
5940;DHT22;2995;-31.998;115.906;2023-11-19T05:37:16;34.70;86.40
5940;DHT22;2995;-31.998;115.906;2023-11-19T05:39:47;34.70;86.80
5940;DHT22;2995;-31.998;115.906;2023-11-19T05:42:18;34.70;87.00
5940;DHT22;2995;-31.998;115.906;2023-11-19T05:44:50;34.70;87.10
5940;DHT22;2995;-31.998;115.906;2023-11-19T05:47:23;34.60;87.80
5940;DHT22;2995;-31.998;115.906;2023-11-19T05:49:54;34.50;88.10
5940;DHT22;2995;-31.998;115.906;2023-11-19T05:52:26;34.30;88.50
5940;DHT22;2995;-31.998;115.906;2023-11-19T05:55:01;34.40;87.70
5940;DHT22;2995;-31.998;115.906;2023-11-19T05:57:34;34.30;86.90
5940;DHT22;2995;-31.998;115.906;2023-11-19T06:00:06;34.20;87.00
5940;DHT22;2995;-31.998;115.906;2023-11-19T06:02:40;34.00;85.80
5940;DHT22;2995;-31.998;115.906;2023-11-19T06:05:12;34.10;86.60
5940;DHT22;2995;-31.998;115.906;2023-11-19T06:07:43;34.00;84.90
5940;DHT22;2995;-31.998;115.906;2023-11-19T06:10:15;34.00;85.80
5940;DHT22;2995;-31.998;115.906;2023-11-19T06:12:46;33.90;85.30
5940;DHT22;2995;-31.998;115.906;2023-11-19T06:15:24;34.00;85.70
5940;DHT22;2995;-31.998;115.906;2023-11-19T06:17:57;33.90;85.80
5940;DHT22;2995;-31.998;115.906;2023-11-19T06:20:29;33.80;85.00
5940;DHT22;2995;-31.998;115.906;2023-11-19T06:23:01;33.80;85.10
5940;DHT22;2995;-31.998;115.906;2023-11-19T06:25:32;33.80;83.50
5940;DHT22;2995;-31.998;115.906;2023-11-19T06:28:04;33.70;82.40
5940;DHT22;2995;-31.998;115.906;2023-11-19T06:30:35;33.80;82.30
5940;DHT22;2995;-31.998;115.906;2023-11-19T06:33:09;33.60;79.90
5940;DHT22;2995;-31.998;115.906;2023-11-19T06:35:40;33.60;81.10
5940;DHT22;2995;-31.998;115.906;2023-11-19T06:38:12;33.60;79.40
5940;DHT22;2995;-31.998;115.906;2023-11-19T06:40:43;33.60;79.60
5940;DHT22;2995;-31.998;115.906;2023-11-19T06:43:15;33.60;79.40
5940;DHT22;2995;-31.998;115.906;2023-11-19T06:45:46;33.60;79.30
5940;DHT22;2995;-31.998;115.906;2023-11-19T06:48:19;33.30;79.30
5940;DHT22;2995;-31.998;115.906;2023-11-19T06:50:50;33.30;79.80
5940;DHT22;2995;-31.998;115.906;2023-11-19T06:53:21;33.20;80.10
5940;DHT22;2995;-31.998;115.906;2023-11-19T06:55:53;33.20;81.20
5940;DHT22;2995;-31.998;115.906;2023-11-19T06:58:25;33.20;79.60
5940;DHT22;2995;-31.998;115.906;2023-11-19T07:00:56;33.00;80.70
5940;DHT22;2995;-31.998;115.906;2023-11-19T07:03:29;33.00;80.70
5940;DHT22;2995;-31.998;115.906;2023-11-19T07:06:00;33.00;81.20
5940;DHT22;2995;-31.998;115.906;2023-11-19T07:08:31;32.70;78.70
5940;DHT22;2995;-31.998;115.906;2023-11-19T07:11:04;32.50;79.30
5940;DHT22;2995;-31.998;115.906;2023-11-19T07:13:37;32.60;82.00
5940;DHT22;2995;-31.998;115.906;2023-11-19T07:16:09;32.70;84.50
5940;DHT22;2995;-31.998;115.906;2023-11-19T07:18:43;32.60;87.30
5940;DHT22;2995;-31.998;115.906;2023-11-19T07:21:14;32.70;87.40
5940;DHT22;2995;-31.998;115.906;2023-11-19T07:23:45;32.70;87.70
5940;DHT22;2995;-31.998;115.906;2023-11-19T07:26:17;32.70;88.20
5940;DHT22;2995;-31.998;115.906;2023-11-19T07:28:48;32.70;86.80
5940;DHT22;2995;-31.998;115.906;2023-11-19T07:31:20;32.60;85.50
5940;DHT22;2995;-31.998;115.906;2023-11-19T07:33:53;32.40;85.50
5940;DHT22;2995;-31.998;115.906;2023-11-19T07:36:25;32.20;84.10
5940;DHT22;2995;-31.998;115.906;2023-11-19T07:38:56;32.00;84.30
5940;DHT22;2995;-31.998;115.906;2023-11-19T07:41:27;31.90;84.90
5940;DHT22;2995;-31.998;115.906;2023-11-19T07:43:59;31.90;84.40
5940;DHT22;2995;-31.998;115.906;2023-11-19T07:46:30;31.80;86.60
5940;DHT22;2995;-31.998;115.906;2023-11-19T07:49:03;31.80;88.70
5940;DHT22;2995;-31.998;115.906;2023-11-19T07:51:34;31.70;88.30
5940;DHT22;2995;-31.998;115.906;2023-11-19T07:54:06;31.70;89.30
5940;DHT22;2995;-31.998;115.906;2023-11-19T07:56:37;31.60;89.40
5940;DHT22;2995;-31.998;115.906;2023-11-19T07:59:08;31.60;90.10
5940;DHT22;2995;-31.998;115.906;2023-11-19T08:01:39;31.40;89.10
5940;DHT22;2995;-31.998;115.906;2023-11-19T08:04:13;31.40;88.60
5940;DHT22;2995;-31.998;115.906;2023-11-19T08:06:44;31.40;88.90
5940;DHT22;2995;-31.998;115.906;2023-11-19T08:09:16;31.40;89.00
5940;DHT22;2995;-31.998;115.906;2023-11-19T08:11:47;31.50;88.90
5940;DHT22;2995;-31.998;115.906;2023-11-19T08:14:19;31.50;89.20
5940;DHT22;2995;-31.998;115.906;2023-11-19T08:16:50;31.50;89.00
5940;DHT22;2995;-31.998;115.906;2023-11-19T08:19:23;31.30;86.40
5940;DHT22;2995;-31.998;115.906;2023-11-19T08:21:54;31.30;86.50
5940;DHT22;2995;-31.998;115.906;2023-11-19T08:24:25;31.30;84.60
5940;DHT22;2995;-31.998;115.906;2023-11-19T08:26:57;31.20;85.30
5940;DHT22;2995;-31.998;115.906;2023-11-19T08:29:28;31.20;84.90
5940;DHT22;2995;-31.998;115.906;2023-11-19T08:32:01;31.10;83.70
5940;DHT22;2995;-31.998;115.906;2023-11-19T08:34:34;31.10;84.20
5940;DHT22;2995;-31.998;115.906;2023-11-19T08:37:05;31.10;84.90
5940;DHT22;2995;-31.998;115.906;2023-11-19T08:39:36;31.00;84.40
5940;DHT22;2995;-31.998;115.906;2023-11-19T08:42:08;31.00;83.60
5940;DHT22;2995;-31.998;115.906;2023-11-19T08:44:39;31.10;82.20
5940;DHT22;2995;-31.998;115.906;2023-11-19T08:47:12;30.90;83.90
5940;DHT22;2995;-31.998;115.906;2023-11-19T08:49:46;30.90;84.70
5940;DHT22;2995;-31.998;115.906;2023-11-19T08:52:17;30.90;85.80
5940;DHT22;2995;-31.998;115.906;2023-11-19T08:54:48;30.80;86.70
5940;DHT22;2995;-31.998;115.906;2023-11-19T08:57:19;30.80;88.20
5940;DHT22;2995;-31.998;115.906;2023-11-19T08:59:51;30.80;86.90
5940;DHT22;2995;-31.998;115.906;2023-11-19T09:02:22;30.80;86.40
5940;DHT22;2995;-31.998;115.906;2023-11-19T09:04:55;30.60;86.00
5940;DHT22;2995;-31.998;115.906;2023-11-19T09:07:26;30.60;86.20
5940;DHT22;2995;-31.998;115.906;2023-11-19T09:09:58;30.60;86.00
5940;DHT22;2995;-31.998;115.906;2023-11-19T09:12:29;30.50;87.00
5940;DHT22;2995;-31.998;115.906;2023-11-19T09:15:00;30.50;87.20
5940;DHT22;2995;-31.998;115.906;2023-11-19T09:17:31;30.50;87.10
5940;DHT22;2995;-31.998;115.906;2023-11-19T09:20:05;30.40;86.90
5940;DHT22;2995;-31.998;115.906;2023-11-19T09:22:37;30.20;88.00
5940;DHT22;2995;-31.998;115.906;2023-11-19T09:25:08;30.10;89.60
5940;DHT22;2995;-31.998;115.906;2023-11-19T09:27:39;30.10;90.40
5940;DHT22;2995;-31.998;115.906;2023-11-19T09:30:11;30.10;91.30
5940;DHT22;2995;-31.998;115.906;2023-11-19T09:32:44;30.10;91.80
5940;DHT22;2995;-31.998;115.906;2023-11-19T09:35:17;30.10;92.80
5940;DHT22;2995;-31.998;115.906;2023-11-19T09:37:48;30.20;93.20
5940;DHT22;2995;-31.998;115.906;2023-11-19T09:40:20;30.10;93.50
5940;DHT22;2995;-31.998;115.906;2023-11-19T09:42:51;30.10;92.50
5940;DHT22;2995;-31.998;115.906;2023-11-19T09:45:22;30.10;93.20
5940;DHT22;2995;-31.998;115.906;2023-11-19T09:47:58;30.00;94.40
5940;DHT22;2995;-31.998;115.906;2023-11-19T09:50:33;30.00;95.30
5940;DHT22;2995;-31.998;115.906;2023-11-19T09:53:05;29.90;94.30
5940;DHT22;2995;-31.998;115.906;2023-11-19T09:55:36;29.80;93.50
5940;DHT22;2995;-31.998;115.906;2023-11-19T09:58:08;29.80;93.10
5940;DHT22;2995;-31.998;115.906;2023-11-19T10:00:39;29.60;91.70
5940;DHT22;2995;-31.998;115.906;2023-11-19T10:03:12;29.30;91.50
5940;DHT22;2995;-31.998;115.906;2023-11-19T10:05:46;29.40;91.90
5940;DHT22;2995;-31.998;115.906;2023-11-19T10:08:17;29.20;91.80
5940;DHT22;2995;-31.998;115.906;2023-11-19T10:10:49;29.20;91.80
5940;DHT22;2995;-31.998;115.906;2023-11-19T10:13:20;29.10;92.10
5940;DHT22;2995;-31.998;115.906;2023-11-19T10:15:57;29.10;92.10
5940;DHT22;2995;-31.998;115.906;2023-11-19T10:18:30;28.90;92.50
5940;DHT22;2995;-31.998;115.906;2023-11-19T10:21:08;28.90;92.60
5940;DHT22;2995;-31.998;115.906;2023-11-19T10:23:54;28.60;92.60
5940;DHT22;2995;-31.998;115.906;2023-11-19T10:26:27;28.60;93.40
5940;DHT22;2995;-31.998;115.906;2023-11-19T10:28:58;28.50;93.90
5940;DHT22;2995;-31.998;115.906;2023-11-19T10:31:29;28.50;94.10
5940;DHT22;2995;-31.998;115.906;2023-11-19T10:34:00;28.50;94.10
5940;DHT22;2995;-31.998;115.906;2023-11-19T10:36:43;28.40;94.40
5940;DHT22;2995;-31.998;115.906;2023-11-19T10:39:14;28.30;94.90
5940;DHT22;2995;-31.998;115.906;2023-11-19T10:41:46;28.20;95.10
5940;DHT22;2995;-31.998;115.906;2023-11-19T10:44:31;28.10;95.50
5940;DHT22;2995;-31.998;115.906;2023-11-19T10:47:07;27.90;95.90
5940;DHT22;2995;-31.998;115.906;2023-11-19T10:49:39;27.90;96.30
5940;DHT22;2995;-31.998;115.906;2023-11-19T10:52:12;28.00;96.80
5940;DHT22;2995;-31.998;115.906;2023-11-19T10:54:50;28.00;96.80
5940;DHT22;2995;-31.998;115.906;2023-11-19T10:57:22;27.90;97.70
5940;DHT22;2995;-31.998;115.906;2023-11-19T11:00:02;27.70;98.00
5940;DHT22;2995;-31.998;115.906;2023-11-19T11:02:42;27.70;98.60
5940;DHT22;2995;-31.998;115.906;2023-11-19T11:05:16;27.40;99.00
5940;DHT22;2995;-31.998;115.906;2023-11-19T11:07:50;27.40;98.90
5940;DHT22;2995;-31.998;115.906;2023-11-19T11:10:26;27.40;99.00
5940;DHT22;2995;-31.998;115.906;2023-11-19T11:13:00;27.40;99.50
5940;DHT22;2995;-31.998;115.906;2023-11-19T11:15:34;27.40;99.70
5940;DHT22;2995;-31.998;115.906;2023-11-19T11:18:08;27.30;99.90
5940;DHT22;2995;-31.998;115.906;2023-11-19T11:20:39;27.10;99.90
5940;DHT22;2995;-31.998;115.906;2023-11-19T11:23:41;27.20;99.90
5940;DHT22;2995;-31.998;115.906;2023-11-19T11:29:27;27.00;99.90
5940;DHT22;2995;-31.998;115.906;2023-11-19T11:32:08;26.80;99.90
5940;DHT22;2995;-31.998;115.906;2023-11-19T11:35:00;26.90;99.90
5940;DHT22;2995;-31.998;115.906;2023-11-19T11:37:39;26.90;99.90
5940;DHT22;2995;-31.998;115.906;2023-11-19T11:40:15;26.80;99.90
5940;DHT22;2995;-31.998;115.906;2023-11-19T11:42:46;26.80;99.90
5940;DHT22;2995;-31.998;115.906;2023-11-19T11:45:19;26.60;99.90
5940;DHT22;2995;-31.998;115.906;2023-11-19T11:48:16;26.70;99.90
5940;DHT22;2995;-31.998;115.906;2023-11-19T11:50:56;26.60;99.90
5940;DHT22;2995;-31.998;115.906;2023-11-19T11:53:27;26.50;99.90
5940;DHT22;2995;-31.998;115.906;2023-11-19T11:56:03;26.50;99.90
5940;DHT22;2995;-31.998;115.906;2023-11-19T11:58:36;26.50;99.90
5940;DHT22;2995;-31.998;115.906;2023-11-19T12:01:16;26.40;99.90
5940;DHT22;2995;-31.998;115.906;2023-11-19T12:03:52;26.50;99.90
5940;DHT22;2995;-31.998;115.906;2023-11-19T12:06:28;26.20;99.90
5940;DHT22;2995;-31.998;115.906;2023-11-19T12:09:01;26.20;99.90
5940;DHT22;2995;-31.998;115.906;2023-11-19T12:11:34;26.20;99.90
5940;DHT22;2995;-31.998;115.906;2023-11-19T12:14:06;26.20;99.90
5940;DHT22;2995;-31.998;115.906;2023-11-19T12:16:37;26.20;99.90
5940;DHT22;2995;-31.998;115.906;2023-11-19T12:19:09;26.10;99.90
5940;DHT22;2995;-31.998;115.906;2023-11-19T12:21:40;26.00;99.90
5940;DHT22;2995;-31.998;115.906;2023-11-19T12:24:12;25.90;99.90
5940;DHT22;2995;-31.998;115.906;2023-11-19T12:26:46;26.00;99.90
5940;DHT22;2995;-31.998;115.906;2023-11-19T12:29:20;25.90;99.90
5940;DHT22;2995;-31.998;115.906;2023-11-19T12:31:55;25.80;99.90
5940;DHT22;2995;-31.998;115.906;2023-11-19T12:34:30;25.80;99.90
5940;DHT22;2995;-31.998;115.906;2023-11-19T12:37:05;25.70;99.90
5940;DHT22;2995;-31.998;115.906;2023-11-19T12:39:38;25.60;99.90
5940;DHT22;2995;-31.998;115.906;2023-11-19T12:42:11;25.50;99.90
5940;DHT22;2995;-31.998;115.906;2023-11-19T12:44:55;25.40;99.90
5940;DHT22;2995;-31.998;115.906;2023-11-19T12:47:26;25.40;99.90
5940;DHT22;2995;-31.998;115.906;2023-11-19T12:49:58;25.40;99.90
5940;DHT22;2995;-31.998;115.906;2023-11-19T12:52:29;25.20;99.90
5940;DHT22;2995;-31.998;115.906;2023-11-19T12:55:02;25.30;99.90
5940;DHT22;2995;-31.998;115.906;2023-11-19T12:57:43;25.30;99.90
5940;DHT22;2995;-31.998;115.906;2023-11-19T13:00:21;25.20;99.90
5940;DHT22;2995;-31.998;115.906;2023-11-19T13:02:53;25.20;99.90
5940;DHT22;2995;-31.998;115.906;2023-11-19T13:05:28;25.10;99.90
5940;DHT22;2995;-31.998;115.906;2023-11-19T13:08:01;24.80;99.90
5940;DHT22;2995;-31.998;115.906;2023-11-19T13:10:33;24.90;99.90
5940;DHT22;2995;-31.998;115.906;2023-11-19T13:13:07;24.90;99.90
5940;DHT22;2995;-31.998;115.906;2023-11-19T13:15:39;24.80;99.90
5940;DHT22;2995;-31.998;115.906;2023-11-19T13:18:13;24.80;99.90
5940;DHT22;2995;-31.998;115.906;2023-11-19T13:20:44;24.60;99.90
5940;DHT22;2995;-31.998;115.906;2023-11-19T13:23:16;24.60;99.90
5940;DHT22;2995;-31.998;115.906;2023-11-19T13:25:47;24.60;99.90
5940;DHT22;2995;-31.998;115.906;2023-11-19T13:28:20;24.50;99.90
5940;DHT22;2995;-31.998;115.906;2023-11-19T13:30:52;24.40;99.90
5940;DHT22;2995;-31.998;115.906;2023-11-19T13:33:24;24.30;99.90
5940;DHT22;2995;-31.998;115.906;2023-11-19T13:35:55;24.40;99.90
5940;DHT22;2995;-31.998;115.906;2023-11-19T13:38:26;24.40;99.90
5940;DHT22;2995;-31.998;115.906;2023-11-19T13:40:58;24.40;99.90
5940;DHT22;2995;-31.998;115.906;2023-11-19T13:43:31;24.30;99.90
5940;DHT22;2995;-31.998;115.906;2023-11-19T13:46:02;24.10;99.90
5940;DHT22;2995;-31.998;115.906;2023-11-19T13:48:34;24.10;99.90
5940;DHT22;2995;-31.998;115.906;2023-11-19T13:51:05;24.10;99.90
5940;DHT22;2995;-31.998;115.906;2023-11-19T13:53:37;24.20;99.90
5940;DHT22;2995;-31.998;115.906;2023-11-19T13:56:10;24.20;99.90
5940;DHT22;2995;-31.998;115.906;2023-11-19T13:58:43;24.20;99.90
5940;DHT22;2995;-31.998;115.906;2023-11-19T14:01:15;24.00;99.90
5940;DHT22;2995;-31.998;115.906;2023-11-19T14:03:46;24.10;99.90
5940;DHT22;2995;-31.998;115.906;2023-11-19T14:06:17;24.10;99.90
5940;DHT22;2995;-31.998;115.906;2023-11-19T14:08:49;24.10;99.90
5940;DHT22;2995;-31.998;115.906;2023-11-19T14:11:20;23.90;99.90
5940;DHT22;2995;-31.998;115.906;2023-11-19T14:13:53;23.90;99.90
5940;DHT22;2995;-31.998;115.906;2023-11-19T14:16:27;24.00;99.90
5940;DHT22;2995;-31.998;115.906;2023-11-19T14:18:59;24.00;99.90
5940;DHT22;2995;-31.998;115.906;2023-11-19T14:21:30;24.10;99.90
5940;DHT22;2995;-31.998;115.906;2023-11-19T14:24:02;24.10;99.90
5940;DHT22;2995;-31.998;115.906;2023-11-19T14:26:33;24.00;99.90
5940;DHT22;2995;-31.998;115.906;2023-11-19T14:29:06;23.90;99.90
5940;DHT22;2995;-31.998;115.906;2023-11-19T14:31:37;23.90;99.90
5940;DHT22;2995;-31.998;115.906;2023-11-19T14:34:08;24.00;99.90
5940;DHT22;2995;-31.998;115.906;2023-11-19T14:36:40;23.80;99.90
5940;DHT22;2995;-31.998;115.906;2023-11-19T14:39:11;23.60;99.90
5940;DHT22;2995;-31.998;115.906;2023-11-19T14:41:43;23.70;99.90
5940;DHT22;2995;-31.998;115.906;2023-11-19T14:44:17;23.80;99.90
5940;DHT22;2995;-31.998;115.906;2023-11-19T14:46:48;23.60;99.90
5940;DHT22;2995;-31.998;115.906;2023-11-19T14:49:19;23.50;99.90
5940;DHT22;2995;-31.998;115.906;2023-11-19T14:51:51;23.50;99.90
5940;DHT22;2995;-31.998;115.906;2023-11-19T14:54:23;23.70;99.90
5940;DHT22;2995;-31.998;115.906;2023-11-19T14:56:54;23.80;99.90
5940;DHT22;2995;-31.998;115.906;2023-11-19T14:59:25;23.80;99.90
5940;DHT22;2995;-31.998;115.906;2023-11-19T15:01:57;23.90;99.90
5940;DHT22;2995;-31.998;115.906;2023-11-19T15:04:28;23.80;99.90
5940;DHT22;2995;-31.998;115.906;2023-11-19T15:07:00;23.80;99.90
5940;DHT22;2995;-31.998;115.906;2023-11-19T15:09:32;23.70;99.90
5940;DHT22;2995;-31.998;115.906;2023-11-19T15:12:05;23.90;99.90
5940;DHT22;2995;-31.998;115.906;2023-11-19T15:14:38;23.90;99.90
5940;DHT22;2995;-31.998;115.906;2023-11-19T15:17:10;23.80;99.90
5940;DHT22;2995;-31.998;115.906;2023-11-19T15:19:41;23.90;99.90
5940;DHT22;2995;-31.998;115.906;2023-11-19T15:22:14;23.90;99.90
5940;DHT22;2995;-31.998;115.906;2023-11-19T15:24:45;23.90;99.90
5940;DHT22;2995;-31.998;115.906;2023-11-19T15:27:16;23.90;99.90
5940;DHT22;2995;-31.998;115.906;2023-11-19T15:29:49;23.70;99.90
5940;DHT22;2995;-31.998;115.906;2023-11-19T15:32:21;23.60;99.90
5940;DHT22;2995;-31.998;115.906;2023-11-19T15:34:52;23.80;99.90
5940;DHT22;2995;-31.998;115.906;2023-11-19T15:37:23;23.60;99.90
5940;DHT22;2995;-31.998;115.906;2023-11-19T15:39:54;23.30;99.90
5940;DHT22;2995;-31.998;115.906;2023-11-19T15:42:26;23.10;99.90
5940;DHT22;2995;-31.998;115.906;2023-11-19T15:44:59;23.00;99.90
5940;DHT22;2995;-31.998;115.906;2023-11-19T15:47:32;23.20;99.90
5940;DHT22;2995;-31.998;115.906;2023-11-19T15:50:04;23.00;99.90
5940;DHT22;2995;-31.998;115.906;2023-11-19T15:52:38;23.00;99.90